Time;durP1;ratioP1;P1;durP2;ratioP2;P2;SDS_P1;SDS_P2;PMS_P1;PMS_P2;Temp;Humidity;BMP_temperature;BMP_pressure;BME280_temperature;BME280_humidity;BME280_pressure;Samples;Min_cycle;Max_cycle;Signal;HPM_P1;HPM_P2
2022/11/29 00:01:26;;;;;;;18.50;11.77;;;;;;;;;;5031580;28;20220;-80
2022/11/29 00:04:30;;;;;;;16.97;11.30;;;;;;;;;;5017577;28;20201;-80
2022/11/29 00:07:35;;;;;;;20.60;12.20;;;;;;;;;;5011804;28;20197;-81
2022/11/29 00:10:39;;;;;;;17.90;13.00;;;;;;;;;;5051340;22;20231;-81
2022/11/29 00:13:44;;;;;;;16.47;11.83;;;;;;;;;;5089078;28;20553;-81
2022/11/29 00:16:54;;;;;;;17.37;11.43;;;;;;;;;;5018570;28;20631;-81
2022/11/29 00:19:58;;;;;;;20.93;12.33;;;;;;;;;;5035109;28;20181;-80
2022/11/29 00:23:03;;;;;;;17.57;11.30;;;;;;;;;;5013778;28;20204;-81
2022/11/29 00:26:07;;;;;;;16.93;11.63;;;;;;;;;;5022987;28;20196;-81
2022/11/29 00:29:12;;;;;;;20.37;12.83;;;;;;;;;;5034368;28;20181;-81
2022/11/29 00:32:16;;;;;;;18.03;12.10;;;;;;;;;;5033969;28;20212;-80
2022/11/29 00:35:20;;;;;;;19.87;12.17;;;;;;;;;;5021589;28;20181;-80
2022/11/29 00:38:26;;;;;;;20.10;13.23;;;;;;;;;;5022236;28;20176;-80
2022/11/29 00:41:31;;;;;;;19.97;12.47;;;;;;;;;;5009842;28;20221;-80
2022/11/29 00:44:35;;;;;;;17.23;12.30;;;;;;;;;;5009319;28;20189;-80
2022/11/29 00:47:39;;;;;;;16.47;11.50;;;;;;;;;;5020523;28;20514;-81
2022/11/29 00:50:44;;;;;;;16.80;12.00;;;;;;;;;;5018835;28;20699;-80
2022/11/29 00:53:48;;;;;;;21.57;11.97;;;;;;;;;;5007761;28;20200;-80
2022/11/29 00:56:53;;;;;;;15.30;11.90;;;;;;;;;;5019897;28;20180;-80
2022/11/29 00:59:57;;;;;;;16.57;11.30;;;;;;;;;;5030552;28;20173;-80
2022/11/29 01:03:01;;;;;;;16.87;12.83;;;;;;;;;;5008928;28;20192;-79
2022/11/29 01:06:11;;;;;;;16.33;11.00;;;;;;;;;;5019841;28;20551;-79
2022/11/29 01:09:16;;;;;;;15.70;11.57;;;;;;;;;;5009909;28;20192;-78
2022/11/29 01:12:20;;;;;;;18.53;11.80;;;;;;;;;;5020350;28;20220;-80
2022/11/29 01:15:27;;;;;;;17.20;12.27;;;;;;;;;;5008423;28;20169;-79
2022/11/29 01:18:32;;;;;;;17.73;11.47;;;;;;;;;;5007575;28;20172;-80
2022/11/29 01:21:36;;;;;;;15.00;10.93;;;;;;;;;;5018742;28;20702;-79
2022/11/29 01:24:40;;;;;;;15.33;11.57;;;;;;;;;;5030001;28;20517;-80
2022/11/29 01:27:45;;;;;;;17.00;11.50;;;;;;;;;;5018625;28;20181;-80
2022/11/29 01:30:50;;;;;;;16.93;12.03;;;;;;;;;;5018711;28;20225;-80
2022/11/29 01:33:57;;;;;;;16.33;12.13;;;;;;;;;;5017754;28;20209;-80
2022/11/29 01:37:01;;;;;;;16.97;12.40;;;;;;;;;;5029160;28;20173;-81
2022/11/29 01:40:06;;;;;;;20.43;11.47;;;;;;;;;;5029288;28;20180;-80
2022/11/29 01:43:17;;;;;;;17.27;11.30;;;;;;;;;;5029207;28;20181;-81
2022/11/29 01:46:21;;;;;;;17.23;11.93;;;;;;;;;;5007001;28;20663;-81
2022/11/29 01:49:31;;;;;;;16.77;12.03;;;;;;;;;;5017761;28;20177;-80
2022/11/29 01:52:34;;;;;;;18.20;11.87;;;;;;;;;;5016863;28;20212;-80
2022/11/29 01:55:45;;;;;;;14.47;11.00;;;;;;;;;;5016560;28;20200;-80
2022/11/29 01:58:50;;;;;;;17.17;12.07;;;;;;;;;;5017365;28;20180;-80
2022/11/29 02:02:05;;;;;;;16.57;11.97;;;;;;;;;;5027842;28;20582;-79
2022/11/29 02:05:12;;;;;;;17.30;11.63;;;;;;;;;;5005545;28;20533;-79
2022/11/29 02:08:23;;;;;;;17.60;12.20;;;;;;;;;;5017107;28;20210;-80
2022/11/29 02:11:30;;;;;;;17.80;12.63;;;;;;;;;;5032678;28;20232;-80
2022/11/29 02:14:35;;;;;;;17.07;11.17;;;;;;;;;;5036082;28;20204;-79
2022/11/29 02:18:13;;;;;;;19.07;11.47;;;;;;;;;;5024976;28;20184;-80
2022/11/29 02:21:38;;;;;;;17.33;11.50;;;;;;;;;;5017413;28;20223;-80
2022/11/29 02:25:05;;;;;;;17.60;11.57;;;;;;;;;;5035818;28;20180;-80
2022/11/29 02:28:43;;;;;;;19.03;12.17;;;;;;;;;;5035806;28;20184;-80
2022/11/29 02:32:03;;;;;;;18.33;12.03;;;;;;;;;;5034624;28;20220;-79
2022/11/29 02:35:47;;;;;;;15.60;11.70;;;;;;;;;;5059642;28;20172;-79
2022/11/29 02:39:13;;;;;;;16.93;11.37;;;;;;;;;;5035455;28;20173;-79
2022/11/29 02:42:54;;;;;;;16.60;12.03;;;;;;;;;;5023312;28;20220;-80
2022/11/29 02:46:40;;;;;;;17.43;11.27;;;;;;;;;;5036118;28;20180;-80
2022/11/29 02:50:26;;;;;;;15.30;11.93;;;;;;;;;;5058884;28;20536;-79
2022/11/29 02:53:45;;;;;;;14.93;11.20;;;;;;;;;;5023725;28;20204;-80
2022/11/29 02:56:58;;;;;;;17.60;12.17;;;;;;;;;;5036239;28;20533;-79
2022/11/29 03:00:18;;;;;;;18.27;12.50;;;;;;;;;;5054488;28;20204;-79
2022/11/29 03:03:30;;;;;;;17.87;12.67;;;;;;;;;;5015656;28;20178;-80
2022/11/29 03:06:55;;;;;;;17.80;11.70;;;;;;;;;;5015809;28;20181;-79
2022/11/29 03:10:07;;;;;;;17.97;12.07;;;;;;;;;;5026580;28;20533;-80
2022/11/29 03:13:22;;;;;;;18.10;13.17;;;;;;;;;;5045275;28;20227;-80
2022/11/29 03:16:32;;;;;;;17.43;12.07;;;;;;;;;;5042832;28;20531;-79
2022/11/29 03:19:59;;;;;;;17.57;12.43;;;;;;;;;;5055157;28;20175;-79
2022/11/29 03:23:27;;;;;;;16.30;12.27;;;;;;;;;;5067229;28;20188;-80
2022/11/29 03:26:40;;;;;;;17.93;12.73;;;;;;;;;;5055756;28;20180;-79
2022/11/29 03:29:55;;;;;;;17.27;12.33;;;;;;;;;;5037204;28;20200;-79
2022/11/29 03:33:15;;;;;;;17.77;12.77;;;;;;;;;;5028143;28;20184;-80
2022/11/29 03:36:41;;;;;;;18.33;12.87;;;;;;;;;;5051097;28;20619;-78
2022/11/29 03:40:08;;;;;;;19.80;13.23;;;;;;;;;;5063454;28;20192;-80
2022/11/29 03:43:19;;;;;;;19.17;13.00;;;;;;;;;;5051016;28;20189;-80
2022/11/29 03:46:39;;;;;;;20.83;14.13;;;;;;;;;;5027499;28;20536;-79
2022/11/29 03:49:58;;;;;;;20.10;13.60;;;;;;;;;;5038878;28;20180;-80
2022/11/29 03:53:36;;;;;;;21.87;13.57;;;;;;;;;;5038634;28;20181;-81
2022/11/29 03:56:41;;;;;;;20.50;13.53;;;;;;;;;;5027618;28;20516;-79
2022/11/29 04:00:06;;;;;;;20.90;14.07;;;;;;;;;;5049244;28;20207;-79
2022/11/29 04:03:29;;;;;;;19.57;13.37;;;;;;;;;;5059035;28;20179;-80
2022/11/29 04:07:04;;;;;;;19.87;13.33;;;;;;;;;;5058219;28;20507;-79
2022/11/29 04:10:46;;;;;;;19.37;13.13;;;;;;;;;;5057507;28;20176;-79
2022/11/29 04:14:12;;;;;;;19.80;14.13;;;;;;;;;;5012241;28;20209;-80
2022/11/29 04:17:47;;;;;;;20.63;14.50;;;;;;;;;;5069665;28;20176;-79
2022/11/29 04:21:29;;;;;;;22.17;13.87;;;;;;;;;;5046559;28;20215;-80
2022/11/29 04:25:08;;;;;;;19.80;12.93;;;;;;;;;;5057986;28;20614;-79
2022/11/29 04:28:12;;;;;;;18.80;12.77;;;;;;;;;;5058440;28;20175;-79
2022/11/29 04:31:38;;;;;;;19.40;13.40;;;;;;;;;;5070353;28;20681;-79
2022/11/29 04:35:11;;;;;;;17.37;12.80;;;;;;;;;;5057303;28;20204;-79
2022/11/29 04:38:59;;;;;;;20.27;14.00;;;;;;;;;;5057691;28;20179;-80
2022/11/29 04:42:29;;;;;;;21.27;13.80;;;;;;;;;;5045365;28;20223;-80
2022/11/29 04:46:04;;;;;;;20.10;13.67;;;;;;;;;;5045373;28;20179;-79
2022/11/29 04:49:36;;;;;;;19.97;13.43;;;;;;;;;;5057081;28;20180;-79
2022/11/29 04:52:46;;;;;;;19.43;13.67;;;;;;;;;;5056880;28;20219;-80
2022/11/29 04:56:38;;;;;;;21.27;13.87;;;;;;;;;;5068128;28;20496;-78
2022/11/29 04:59:42;;;;;;;20.17;13.57;;;;;;;;;;5026937;28;20512;-80
2022/11/29 05:03:08;;;;;;;17.30;12.43;;;;;;;;;;5068384;28;20175;-79
2022/11/29 05:06:28;;;;;;;18.10;13.00;;;;;;;;;;5057592;28;20176;-79
2022/11/29 05:09:42;;;;;;;21.20;12.93;;;;;;;;;;5056875;28;20200;-80
2022/11/29 05:13:01;;;;;;;19.20;13.77;;;;;;;;;;5045993;28;20179;-80
2022/11/29 05:16:32;;;;;;;19.53;13.97;;;;;;;;;;5068210;28;20180;-79
2022/11/29 05:19:50;;;;;;;18.53;12.93;;;;;;;;;;5055822;28;20645;-79
2022/11/29 05:23:28;;;;;;;22.93;13.43;;;;;;;;;;5044530;28;20528;-79
2022/11/29 05:27:00;;;;;;;21.50;14.23;;;;;;;;;;5055605;28;20196;-80
2022/11/29 05:30:11;;;;;;;20.33;13.80;;;;;;;;;;5078523;28;20179;-79
2022/11/29 05:33:27;;;;;;;21.00;13.93;;;;;;;;;;5044591;28;20195;-78
2022/11/29 05:36:38;;;;;;;23.53;15.33;;;;;;;;;;5046244;28;20168;-78
2022/11/29 05:39:56;;;;;;;21.57;13.70;;;;;;;;;;5054366;28;20188;-79
2022/11/29 05:43:16;;;;;;;21.13;14.03;;;;;;;;;;5017883;28;20200;-78
2022/11/29 05:46:39;;;;;;;24.20;16.13;;;;;;;;;;5014433;28;20177;-78
2022/11/29 05:50:02;;;;;;;24.80;14.60;;;;;;;;;;5027058;28;20177;-78
2022/11/29 05:53:48;;;;;;;17.20;13.47;;;;;;;;;;5014749;28;20181;-78
2022/11/29 05:57:20;;;;;;;19.60;14.57;;;;;;;;;;5015973;28;20180;-77
2022/11/29 06:00:42;;;;;;;18.50;13.87;;;;;;;;;;5016279;28;20193;-78
2022/11/29 06:04:08;;;;;;;20.20;12.80;;;;;;;;;;5015721;28;20177;-79
2022/11/29 06:07:25;;;;;;;20.13;13.40;;;;;;;;;;5015285;28;20185;-79
2022/11/29 06:10:34;;;;;;;22.33;14.10;;;;;;;;;;5003732;28;20208;-78
2022/11/29 06:13:49;;;;;;;21.57;12.93;;;;;;;;;;5025551;28;20624;-78
2022/11/29 06:17:24;;;;;;;19.40;12.23;;;;;;;;;;5025815;28;20181;-79
2022/11/29 06:20:53;;;;;;;18.43;12.57;;;;;;;;;;5025465;28;20184;-78
2022/11/29 06:24:04;;;;;;;19.80;12.50;;;;;;;;;;5026015;28;20172;-79
2022/11/29 06:27:34;;;;;;;19.93;13.43;;;;;;;;;;5027808;28;20185;-78
2022/11/29 06:30:59;;;;;;;18.33;12.10;;;;;;;;;;5027648;28;20513;-79
2022/11/29 06:34:09;;;;;;;21.23;13.47;;;;;;;;;;5047077;28;20208;-79
2022/11/29 06:37:27;;;;;;;20.33;12.90;;;;;;;;;;5069054;28;20176;-79
2022/11/29 06:40:32;;;;;;;17.93;12.63;;;;;;;;;;5056936;28;20179;-79
2022/11/29 06:43:36;;;;;;;22.03;13.47;;;;;;;;;;5056080;28;20179;-79
2022/11/29 06:46:47;;;;;;;22.10;13.43;;;;;;;;;;5068238;28;20172;-78
2022/11/29 06:50:18;;;;;;;18.73;13.23;;;;;;;;;;5046651;28;20627;-78
2022/11/29 06:53:34;;;;;;;18.43;13.77;;;;;;;;;;5067863;28;20645;-78
2022/11/29 06:56:39;;;;;;;20.97;13.97;;;;;;;;;;5056547;28;20171;-79
2022/11/29 06:59:49;;;;;;;20.27;14.17;;;;;;;;;;5081225;28;20167;-79
2022/11/29 07:03:28;;;;;;;20.23;14.23;;;;;;;;;;5041205;28;20623;-78
2022/11/29 07:06:34;;;;;;;20.80;13.97;;;;;;;;;;5056561;28;20516;-78
2022/11/29 07:09:39;;;;;;;23.07;14.70;;;;;;;;;;5081068;28;20180;-78
2022/11/29 07:12:46;;;;;;;22.43;13.77;;;;;;;;;;5070846;28;20222;-78
2022/11/29 07:16:16;;;;;;;21.17;14.20;;;;;;;;;;5059897;28;20211;-79
2022/11/29 07:20:00;;;;;;;20.53;13.77;;;;;;;;;;5059573;28;20180;-78
2022/11/29 07:23:33;;;;;;;19.33;13.07;;;;;;;;;;5059352;28;20176;-78
2022/11/29 07:26:40;;;;;;;24.03;13.97;;;;;;;;;;5060399;28;20623;-78
2022/11/29 07:30:08;;;;;;;20.40;13.67;;;;;;;;;;5060284;28;20180;-78
2022/11/29 07:33:32;;;;;;;24.33;13.93;;;;;;;;;;5048434;28;20180;-79
2022/11/29 07:36:48;;;;;;;20.57;13.07;;;;;;;;;;5071138;28;20171;-78
2022/11/29 07:40:10;;;;;;;19.33;13.47;;;;;;;;;;5061467;28;20191;-79
2022/11/29 07:43:44;;;;;;;20.93;12.83;;;;;;;;;;5060705;28;20191;-79
2022/11/29 07:46:48;;;;;;;19.90;12.97;;;;;;;;;;5049663;28;20180;-79
2022/11/29 07:49:52;;;;;;;19.83;13.93;;;;;;;;;;5063014;28;20176;-79
2022/11/29 07:52:58;;;;;;;20.17;13.20;;;;;;;;;;5088050;28;20175;-79
2022/11/29 07:56:02;;;;;;;18.03;13.60;;;;;;;;;;5089960;28;20219;-79
2022/11/29 07:59:11;;;;;;;21.47;14.60;;;;;;;;;;5089182;28;20638;-79
2022/11/29 08:02:26;;;;;;;20.23;13.73;;;;;;;;;;5077915;28;20211;-79
2022/11/29 08:05:30;;;;;;;20.57;13.57;;;;;;;;;;5064805;28;20176;-79
2022/11/29 08:08:34;;;;;;;22.20;13.83;;;;;;;;;;5087461;28;20175;-79
2022/11/29 08:11:38;;;;;;;21.13;14.63;;;;;;;;;;5050761;28;20689;-78
2022/11/29 08:14:43;;;;;;;20.93;14.83;;;;;;;;;;5060943;28;20223;-78
2022/11/29 08:17:47;;;;;;;23.37;15.43;;;;;;;;;;5071818;28;20707;-79
2022/11/29 08:20:52;;;;;;;19.00;13.83;;;;;;;;;;5085671;28;20211;-78
2022/11/29 08:23:56;;;;;;;24.20;14.83;;;;;;;;;;5069588;28;20184;-78
2022/11/29 08:27:00;;;;;;;22.20;14.53;;;;;;;;;;5070070;28;20167;-79
2022/11/29 08:30:06;;;;;;;20.57;13.63;;;;;;;;;;5073161;28;20175;-79
2022/11/29 08:33:10;;;;;;;19.37;14.17;;;;;;;;;;5059961;28;20172;-79
2022/11/29 08:36:18;;;;;;;23.30;14.37;;;;;;;;;;5047520;28;20207;-78
2022/11/29 08:39:22;;;;;;;19.60;13.57;;;;;;;;;;5058685;28;20180;-78
2022/11/29 08:42:26;;;;;;;20.93;14.73;;;;;;;;;;5080581;28;20211;-78
2022/11/29 08:45:30;;;;;;;19.03;13.30;;;;;;;;;;5058155;28;20172;-79
2022/11/29 08:48:35;;;;;;;18.87;13.47;;;;;;;;;;5058875;28;20511;-78
2022/11/29 08:51:40;;;;;;;18.73;13.53;;;;;;;;;;5073407;28;20211;-79
2022/11/29 08:54:44;;;;;;;20.03;14.23;;;;;;;;;;5061374;28;20183;-80
2022/11/29 08:57:49;;;;;;;23.57;14.77;;;;;;;;;;5050104;28;20183;-79
2022/11/29 09:00:54;;;;;;;20.77;13.90;;;;;;;;;;5072592;28;20215;-80
2022/11/29 09:03:58;;;;;;;19.33;13.87;;;;;;;;;;5049868;28;20179;-80
2022/11/29 09:07:02;;;;;;;21.03;13.67;;;;;;;;;;5050184;28;20175;-79
2022/11/29 09:10:07;;;;;;;19.27;13.47;;;;;;;;;;5073459;28;20199;-79
2022/11/29 09:13:12;;;;;;;21.27;13.80;;;;;;;;;;5071599;28;20188;-79
2022/11/29 09:16:20;;;;;;;19.67;13.93;;;;;;;;;;5049609;28;20219;-79
2022/11/29 09:19:24;;;;;;;19.60;13.53;;;;;;;;;;5049424;28;20195;-80
2022/11/29 09:22:28;;;;;;;21.27;14.00;;;;;;;;;;5062345;28;20215;-79
2022/11/29 09:25:32;;;;;;;18.43;13.97;;;;;;;;;;5063903;28;20176;-79
2022/11/29 09:28:37;;;;;;;21.57;12.87;;;;;;;;;;5049294;28;20187;-79
2022/11/29 09:31:43;;;;;;;22.90;13.97;;;;;;;;;;5061940;28;20547;-80
2022/11/29 09:34:48;;;;;;;18.80;13.47;;;;;;;;;;5072593;28;20195;-80
2022/11/29 09:37:52;;;;;;;18.80;13.53;;;;;;;;;;5073383;28;20179;-80
2022/11/29 09:41:04;;;;;;;18.50;12.83;;;;;;;;;;5050315;28;20214;-80
2022/11/29 09:44:31;;;;;;;19.67;12.90;;;;;;;;;;5049577;28;20176;-79
2022/11/29 09:47:56;;;;;;;17.57;12.77;;;;;;;;;;5055717;28;20184;-79
2022/11/29 09:51:15;;;;;;;18.93;13.07;;;;;;;;;;5073321;28;20211;-79
2022/11/29 09:54:59;;;;;;;18.70;12.63;;;;;;;;;;5072464;28;20176;-79
2022/11/29 09:58:10;;;;;;;20.30;13.30;;;;;;;;;;5059488;28;20539;-78
2022/11/29 10:01:23;;;;;;;18.67;13.73;;;;;;;;;;5071288;28;20215;-79
2022/11/29 10:04:31;;;;;;;18.10;12.87;;;;;;;;;;5059450;28;20191;-80
2022/11/29 10:07:39;;;;;;;18.93;13.43;;;;;;;;;;5059370;28;20516;-79
2022/11/29 10:10:46;;;;;;;21.17;14.03;;;;;;;;;;5058365;28;20223;-78
2022/11/29 10:13:59;;;;;;;17.73;12.67;;;;;;;;;;5057420;28;20183;-78
2022/11/29 10:17:19;;;;;;;18.10;12.30;;;;;;;;;;5068018;28;20207;-78
2022/11/29 10:20:26;;;;;;;16.03;11.87;;;;;;;;;;5057740;28;20634;-79
2022/11/29 10:23:56;;;;;;;19.80;13.40;;;;;;;;;;5045542;28;20175;-80
2022/11/29 10:27:04;;;;;;;18.13;12.27;;;;;;;;;;5062990;28;20180;-78
2022/11/29 10:30:14;;;;;;;20.60;13.23;;;;;;;;;;5068371;28;20183;-79
2022/11/29 10:33:21;;;;;;;19.47;13.50;;;;;;;;;;5069725;28;20180;-79
2022/11/29 10:36:52;;;;;;;18.50;12.83;;;;;;;;;;5070604;28;20222;-80
2022/11/29 10:40:03;;;;;;;18.20;13.17;;;;;;;;;;5063735;28;20179;-80
2022/11/29 10:43:07;;;;;;;21.20;13.20;;;;;;;;;;5066256;28;20187;-79
2022/11/29 10:46:20;;;;;;;19.20;13.17;;;;;;;;;;5067036;28;20175;-79
2022/11/29 10:49:27;;;;;;;16.50;12.03;;;;;;;;;;5067609;28;20176;-78
2022/11/29 10:52:32;;;;;;;18.03;13.30;;;;;;;;;;5089830;28;20214;-79
2022/11/29 10:55:52;;;;;;;20.40;12.90;;;;;;;;;;5065655;28;20211;-79
2022/11/29 10:59:01;;;;;;;20.43;13.30;;;;;;;;;;5076579;28;20187;-79
2022/11/29 11:02:21;;;;;;;18.43;13.87;;;;;;;;;;5064705;28;20211;-79
2022/11/29 11:05:25;;;;;;;17.70;12.83;;;;;;;;;;5087958;28;20180;-79
2022/11/29 11:08:31;;;;;;;20.23;13.83;;;;;;;;;;5077714;28;20175;-80
2022/11/29 11:11:35;;;;;;;20.00;13.03;;;;;;;;;;5066111;28;20227;-79
2022/11/29 11:14:40;;;;;;;18.73;13.63;;;;;;;;;;5077600;28;20195;-78
2022/11/29 11:17:57;;;;;;;18.83;13.30;;;;;;;;;;5068346;28;20195;-79
2022/11/29 11:21:01;;;;;;;18.00;13.63;;;;;;;;;;5078415;28;20207;-80
2022/11/29 11:24:22;;;;;;;20.97;14.50;;;;;;;;;;5077483;28;20179;-80
2022/11/29 11:27:33;;;;;;;21.60;15.37;;;;;;;;;;5053344;28;20176;-79
2022/11/29 11:30:37;;;;;;;21.50;14.57;;;;;;;;;;5076818;28;20183;-80
2022/11/29 11:33:43;;;;;;;21.63;14.83;;;;;;;;;;5054144;28;20172;-79
2022/11/29 11:36:47;;;;;;;20.83;14.40;;;;;;;;;;5054443;28;20215;-79
2022/11/29 11:39:55;;;;;;;21.43;14.33;;;;;;;;;;5075211;28;20176;-78
2022/11/29 11:43:01;;;;;;;19.63;14.27;;;;;;;;;;5065282;28;20175;-79
2022/11/29 11:46:05;;;;;;;23.20;14.50;;;;;;;;;;5077579;28;20171;-79
2022/11/29 11:49:23;;;;;;;20.53;14.23;;;;;;;;;;5066334;28;20172;-79
2022/11/29 11:52:52;;;;;;;20.40;14.63;;;;;;;;;;5050245;28;20215;-78
2022/11/29 11:56:05;;;;;;;20.20;14.87;;;;;;;;;;5063575;28;20207;-79
2022/11/29 11:59:20;;;;;;;22.00;14.13;;;;;;;;;;5063399;28;20203;-79
2022/11/29 12:02:25;;;;;;;19.77;13.37;;;;;;;;;;5051435;28;20551;-78
2022/11/29 12:05:29;;;;;;;19.90;13.37;;;;;;;;;;5062796;28;20183;-79
2022/11/29 12:08:35;;;;;;;22.77;13.43;;;;;;;;;;5074860;28;20183;-78
2022/11/29 12:11:55;;;;;;;21.27;14.63;;;;;;;;;;5062402;28;20713;-79
2022/11/29 12:15:05;;;;;;;20.70;14.37;;;;;;;;;;5062247;28;20183;-79
2022/11/29 12:18:29;;;;;;;20.83;14.67;;;;;;;;;;5071143;28;20176;-80
2022/11/29 12:21:40;;;;;;;18.57;13.80;;;;;;;;;;5059531;28;20215;-78
2022/11/29 12:24:54;;;;;;;21.03;14.47;;;;;;;;;;5059305;28;20179;-78
2022/11/29 12:27:58;;;;;;;21.97;14.73;;;;;;;;;;5058506;28;20187;-79
2022/11/29 12:31:40;;;;;;;19.83;13.97;;;;;;;;;;5047025;28;20211;-78
2022/11/29 12:35:25;;;;;;;21.13;14.00;;;;;;;;;;5059320;28;20635;-78
2022/11/29 12:39:02;;;;;;;19.37;13.93;;;;;;;;;;5083552;28;20627;-78
2022/11/29 12:42:26;;;;;;;19.97;14.23;;;;;;;;;;5058382;28;20682;-78
2022/11/29 12:45:31;;;;;;;19.10;13.67;;;;;;;;;;5070282;28;20180;-78
2022/11/29 12:48:38;;;;;;;21.50;14.87;;;;;;;;;;5059772;28;20172;-79
2022/11/29 12:51:42;;;;;;;23.70;15.47;;;;;;;;;;5070847;28;20562;-78
2022/11/29 12:55:14;;;;;;;20.97;14.83;;;;;;;;;;5071899;28;20180;-79
2022/11/29 12:58:44;;;;;;;21.97;14.90;;;;;;;;;;5070985;28;20172;-80
2022/11/29 13:01:57;;;;;;;19.93;14.63;;;;;;;;;;5058542;28;20219;-80
2022/11/29 13:05:49;;;;;;;20.97;15.43;;;;;;;;;;5069657;28;20654;-80
2022/11/29 13:08:59;;;;;;;21.23;14.60;;;;;;;;;;5060289;28;20176;-80
2022/11/29 13:12:23;;;;;;;21.93;14.73;;;;;;;;;;5060526;28;20227;-80
2022/11/29 13:15:36;;;;;;;21.40;14.60;;;;;;;;;;5060003;28;20179;-80
2022/11/29 13:19:02;;;;;;;24.60;15.10;;;;;;;;;;5048705;28;20192;-80
2022/11/29 13:22:19;;;;;;;21.47;14.07;;;;;;;;;;5071803;28;20215;-80
2022/11/29 13:25:29;;;;;;;24.63;16.07;;;;;;;;;;5058065;28;20180;-79
2022/11/29 13:28:36;;;;;;;21.67;15.53;;;;;;;;;;5071323;28;20642;-78
2022/11/29 13:31:41;;;;;;;19.87;13.67;;;;;;;;;;5071576;28;20689;-79
2022/11/29 13:34:48;;;;;;;19.80;13.20;;;;;;;;;;5049521;28;20171;-79
2022/11/29 13:38:24;;;;;;;19.03;12.90;;;;;;;;;;5058908;28;20211;-79
2022/11/29 13:41:36;;;;;;;17.60;13.27;;;;;;;;;;5059622;28;20210;-79
2022/11/29 13:44:59;;;;;;;18.53;12.73;;;;;;;;;;5071612;28;20179;-78
2022/11/29 13:48:34;;;;;;;15.90;11.73;;;;;;;;;;5071182;28;20180;-78
2022/11/29 13:51:39;;;;;;;19.83;12.60;;;;;;;;;;5058901;28;20215;-79
2022/11/29 13:54:44;;;;;;;21.17;13.63;;;;;;;;;;5059020;28;20199;-79
2022/11/29 13:58:05;;;;;;;20.77;13.27;;;;;;;;;;5069552;28;20219;-79
2022/11/29 14:01:12;;;;;;;21.07;14.63;;;;;;;;;;5058859;28;20690;-79
2022/11/29 14:04:22;;;;;;;21.47;14.27;;;;;;;;;;5047096;28;20176;-79
2022/11/29 14:07:26;;;;;;;22.70;14.67;;;;;;;;;;5047233;28;20511;-78
2022/11/29 14:10:31;;;;;;;23.20;14.67;;;;;;;;;;5069419;28;20199;-78
2022/11/29 14:13:40;;;;;;;25.13;16.47;;;;;;;;;;5056974;28;20180;-79
2022/11/29 14:16:52;;;;;;;22.57;13.87;;;;;;;;;;5067687;28;20207;-79
2022/11/29 14:20:21;;;;;;;19.37;13.67;;;;;;;;;;5069572;28;20179;-79
2022/11/29 14:23:31;;;;;;;18.73;14.03;;;;;;;;;;5069658;28;20180;-79
2022/11/29 14:26:35;;;;;;;19.93;13.60;;;;;;;;;;5057554;28;20167;-79
2022/11/29 14:29:49;;;;;;;21.00;14.07;;;;;;;;;;5070384;28;20533;-79
2022/11/29 14:32:57;;;;;;;20.37;13.93;;;;;;;;;;5070191;28;20184;-78
2022/11/29 14:36:13;;;;;;;21.37;13.97;;;;;;;;;;5056413;28;20180;-79
2022/11/29 14:39:37;;;;;;;20.83;14.73;;;;;;;;;;5044133;28;20195;-79
2022/11/29 14:42:49;;;;;;;21.23;14.87;;;;;;;;;;5055126;28;20219;-79
2022/11/29 14:46:12;;;;;;;21.00;14.23;;;;;;;;;;5066527;28;20176;-78
2022/11/29 14:49:25;;;;;;;21.13;13.93;;;;;;;;;;5054401;28;20180;-79
2022/11/29 14:52:37;;;;;;;24.43;16.07;;;;;;;;;;5064449;28;20283;-78
2022/11/29 14:55:42;;;;;;;21.80;15.43;;;;;;;;;;5042860;28;20179;-78
2022/11/29 14:58:46;;;;;;;26.90;17.17;;;;;;;;;;5066734;28;20191;-78
2022/11/29 15:01:51;;;;;;;26.80;16.70;;;;;;;;;;5054799;28;20218;-78
2022/11/29 15:04:56;;;;;;;24.40;15.83;;;;;;;;;;5079465;28;20176;-79
2022/11/29 15:08:27;;;;;;;23.77;16.27;;;;;;;;;;5055799;28;20172;-79
2022/11/29 15:11:49;;;;;;;22.40;14.77;;;;;;;;;;5054232;28;20219;-78
2022/11/29 15:15:24;;;;;;;22.30;16.10;;;;;;;;;;5044480;28;20183;-78
2022/11/29 15:18:37;;;;;;;23.83;15.80;;;;;;;;;;5061222;28;20203;-80
2022/11/29 15:22:13;;;;;;;25.83;17.47;;;;;;;;;;5073905;28;20215;-80
2022/11/29 15:25:23;;;;;;;26.27;16.20;;;;;;;;;;5058807;28;20172;-80
2022/11/29 15:28:28;;;;;;;23.83;16.80;;;;;;;;;;5063643;28;20175;-79
2022/11/29 15:31:34;;;;;;;28.87;17.10;;;;;;;;;;5053226;28;20215;-80
2022/11/29 15:34:42;;;;;;;24.57;16.73;;;;;;;;;;5077091;28;20180;-80
2022/11/29 15:37:48;;;;;;;25.47;17.27;;;;;;;;;;5076169;28;20203;-80
2022/11/29 15:40:54;;;;;;;24.47;16.57;;;;;;;;;;5053576;28;20211;-80
2022/11/29 15:44:01;;;;;;;25.13;16.53;;;;;;;;;;5054296;28;20175;-80
2022/11/29 15:47:23;;;;;;;24.70;16.97;;;;;;;;;;5065870;28;20179;-80
2022/11/29 15:50:32;;;;;;;23.10;15.57;;;;;;;;;;5088246;28;20179;-79
2022/11/29 15:53:46;;;;;;;25.03;16.67;;;;;;;;;;5063145;28;20195;-79
2022/11/29 15:57:16;;;;;;;25.50;16.87;;;;;;;;;;5062653;28;20179;-79
2022/11/29 16:00:25;;;;;;;24.60;16.20;;;;;;;;;;5064300;28;20191;-79
2022/11/29 16:03:32;;;;;;;27.03;18.20;;;;;;;;;;5072298;28;20195;-79
2022/11/29 16:06:41;;;;;;;27.20;17.90;;;;;;;;;;5049134;28;20179;-79
2022/11/29 16:10:13;;;;;;;31.47;18.17;;;;;;;;;;5070346;28;20175;-78
2022/11/29 16:13:24;;;;;;;26.77;17.57;;;;;;;;;;5057745;28;20201;-79
2022/11/29 16:16:31;;;;;;;25.97;17.40;;;;;;;;;;5058151;28;20180;-78
2022/11/29 16:19:38;;;;;;;27.87;18.93;;;;;;;;;;5074296;28;20179;-79
2022/11/29 16:22:42;;;;;;;27.17;19.33;;;;;;;;;;5026701;28;20227;-78
2022/11/29 16:25:57;;;;;;;30.40;19.67;;;;;;;;;;5040814;28;20196;-79
2022/11/29 16:29:01;;;;;;;25.50;17.63;;;;;;;;;;5010094;28;20177;-79
2022/11/29 16:32:24;;;;;;;24.77;17.47;;;;;;;;;;5032282;28;20217;-79
2022/11/29 16:35:32;;;;;;;24.07;16.20;;;;;;;;;;5009118;28;20181;-78
2022/11/29 16:38:44;;;;;;;24.07;16.23;;;;;;;;;;5017817;28;20221;-78
2022/11/29 16:42:14;;;;;;;25.90;16.93;;;;;;;;;;5009330;28;20209;-79
2022/11/29 16:45:32;;;;;;;23.03;16.57;;;;;;;;;;5009422;28;20181;-79
2022/11/29 16:48:37;;;;;;;29.03;16.57;;;;;;;;;;5020917;28;20173;-78
2022/11/29 16:51:47;;;;;;;25.03;16.93;;;;;;;;;;5030641;28;20220;-78
2022/11/29 16:54:51;;;;;;;27.30;17.77;;;;;;;;;;5026835;28;20200;-79
2022/11/29 16:57:55;;;;;;;26.60;18.03;;;;;;;;;;5062939;28;20215;-77
2022/11/29 17:01:14;;;;;;;25.23;17.13;;;;;;;;;;5056999;28;20223;-78
2022/11/29 17:04:19;;;;;;;26.53;17.17;;;;;;;;;;5032227;28;20176;-79
2022/11/29 17:07:35;;;;;;;27.87;17.17;;;;;;;;;;5043969;28;20184;-79
2022/11/29 17:10:39;;;;;;;24.00;16.60;;;;;;;;;;5040407;28;20211;-78
2022/11/29 17:13:45;;;;;;;29.53;19.57;;;;;;;;;;5034997;28;20181;-77
2022/11/29 17:16:50;;;;;;;26.80;18.23;;;;;;;;;;5049469;28;20207;-78
2022/11/29 17:19:54;;;;;;;27.90;17.37;;;;;;;;;;5026664;28;20177;-77
2022/11/29 17:22:59;;;;;;;31.53;19.63;;;;;;;;;;5015044;28;20180;-78
2022/11/29 17:26:03;;;;;;;44.20;23.40;;;;;;;;;;5032817;28;20184;-79
2022/11/29 17:29:09;;;;;;;36.90;22.37;;;;;;;;;;5045432;28;20490;-78
2022/11/29 17:32:14;;;;;;;34.63;19.20;;;;;;;;;;5017641;28;20212;-78
2022/11/29 17:35:18;;;;;;;36.20;20.93;;;;;;;;;;5015513;28;20181;-77
2022/11/29 17:38:22;;;;;;;43.73;24.47;;;;;;;;;;5041314;28;20201;-78
2022/11/29 17:41:27;;;;;;;37.87;20.83;;;;;;;;;;5021432;28;20216;-78
2022/11/29 17:44:33;;;;;;;31.33;20.77;;;;;;;;;;5018609;28;20185;-78
2022/11/29 17:47:37;;;;;;;35.87;21.97;;;;;;;;;;5029746;28;20197;-78
2022/11/29 17:50:41;;;;;;;34.60;20.87;;;;;;;;;;5042386;28;20220;-80
2022/11/29 17:53:46;;;;;;;31.90;19.13;;;;;;;;;;5028464;28;20180;-78
2022/11/29 17:56:50;;;;;;;31.10;19.17;;;;;;;;;;5030376;28;20185;-78
2022/11/29 17:59:55;;;;;;;32.87;19.93;;;;;;;;;;5017916;28;20640;-78
2022/11/29 18:02:59;;;;;;;29.27;19.13;;;;;;;;;;5040693;28;20181;-78
2022/11/29 18:06:07;;;;;;;32.83;20.50;;;;;;;;;;5006467;28;20632;-78
2022/11/29 18:09:12;;;;;;;38.13;22.80;;;;;;;;;;5029216;28;20605;-77
2022/11/29 18:12:16;;;;;;;29.07;19.13;;;;;;;;;;5028355;28;20232;-78
2022/11/29 18:15:21;;;;;;;33.17;21.17;;;;;;;;;;5016382;28;20192;-78
2022/11/29 18:18:25;;;;;;;34.50;21.13;;;;;;;;;;5058409;28;20211;-78
2022/11/29 18:21:30;;;;;;;36.20;21.37;;;;;;;;;;5039346;28;20220;-80
2022/11/29 18:24:34;;;;;;;34.80;21.37;;;;;;;;;;5005194;28;20180;-78
2022/11/29 18:27:39;;;;;;;34.13;20.30;;;;;;;;;;5026176;28;20173;-78
2022/11/29 18:30:43;;;;;;;33.10;20.07;;;;;;;;;;5005347;28;20212;-78
2022/11/29 18:33:49;;;;;;;36.17;20.80;;;;;;;;;;5077152;28;20180;-78
2022/11/29 18:36:53;;;;;;;34.60;20.60;;;;;;;;;;5062595;28;20666;-78
2022/11/29 18:39:57;;;;;;;32.63;19.87;;;;;;;;;;5062013;28;20187;-77
2022/11/29 18:43:01;;;;;;;29.43;19.30;;;;;;;;;;5050800;28;20176;-78
2022/11/29 18:46:14;;;;;;;38.00;20.77;;;;;;;;;;5039239;28;20168;-77